Main page
METAR-TAF:

METAR-TAF

Airports :

Sirri Island Airport

Sirri, Iran

latitude: 25-54-34N, longitude: 054-32-22E, elevation: 13 m

Current weather observation

The report was made 13 minutes ago, at 03:00 UTC
Wind 12 kt from the West
Temperature 31°C
Humidity 75%
Pressure 999 hPa
Visibility: 3500 m
haze

METAR: OIBS 240300Z 27012KT 3500 HZ NSC 31/26 Q0999

Time: 07:43 (03:13 UTC)


TAF: missing

Weather observations and forecasts of more than 4000 airports (METAR and TAF reports).

The available stations are represented by yellow and red dots on the map.

Hover mouse over dot to see the name of the station.

Then click to see weather observations and forecasts.

To change the map : click on the green buttons with a black cross to zoom in, on the green button with a dash to zoom out, or on the green arrows for adjacent maps.


METAR-TAF: